Santa Marta, Brazil
Current Conditions -  °F | °C
As of 10:00 AM on Friday 19 Dec 2014 (Local Time) from SBCM Reporting Station
Few Clouds Few Clouds  
Wind Chill: 77°   Ceiling: Unl
Heat Index: 79°   Visibility: 6mi
Dew Point: 64°   Wind: 5mph
Humidity: 65%   Direction: 80°E
Pressure: 29.85"   Gusts: NA
Location:  28.6°S, 48.82°W
Report Text: SBCM 191200Z 08004KT 9999 FEW020 25/18 Q1011
Loading
Personal Weather Stations






























Interactive Weather Map New forecast layout! Learn more

10-Day Weather Forecast

Advertisements
Track Severe Weather on mobile